Hearne, Texas
Current Conditions -  °F | °C
As of 5:55 AM on Thursday 27 Nov 2014 (Local Time) from KLHB Reporting Station
Clear Clear  
Wind Chill: 38°   Ceiling: Unl
Heat Index: 41°   Visibility: 10mi
Dew Point: 34°   Wind: 5mph
Humidity: 75%   Direction: 360°N
Pressure: 30.47"   Gusts: NA
Location:  30.87°N, 96.6°W
Report Text: KLHB 271155Z AUTO 36004KT 10SM CLR 05/01 A3047 RMK AO2 T00500009 10115 20034
Loading
Personal Weather Stations






























Interactive Weather Map New forecast layout! Learn more

10-Day Weather Forecast

Advertisements
Track Severe Weather on mobile